Wetterstation Vordersexau
Wetterdaten: Woche 23.07.18 - 29.07.18 (KW30)
Datum Zeit Temp. A. Feuchte A. Luftdruck Regen Wind Richtung Taupunkt Windchill Windben
23.07.2018 00:00 18,1 C 82 % 1013,3 hPa 0,0 l/m 0,0 km/h O-NO 15,0 C 18,1 C 0,0 km/h
23.07.2018 01:00 17,8 C 83 % 1013,6 hPa 0,0 l/m 0,0 km/h O-NO 14,9 C 17,8 C 0,0 km/h
23.07.2018 02:00 17,4 C 82 % 1013,5 hPa 0,0 l/m 0,0 km/h O-NO 14,3 C 17,4 C 0,0 km/h
23.07.2018 03:00 16,8 C 83 % 1013,5 hPa 0,0 l/m 0,0 km/h O-NO 13,9 C 16,8 C 0,0 km/h
23.07.2018 04:00 16,1 C 83 % 1013,7 hPa 0,0 l/m 0,0 km/h O-NO 13,2 C 16,1 C 0,0 km/h
23.07.2018 05:00 15,8 C 83 % 1014,2 hPa 0,0 l/m 0,0 km/h O-NO 12,9 C 15,8 C 0,0 km/h
23.07.2018 06:00 15,6 C 83 % 1014,4 hPa 0,0 l/m 0,0 km/h O-NO 12,7 C 15,6 C 0,0 km/h
23.07.2018 07:00 17,2 C 82 % 1014,8 hPa 0,0 l/m 0,0 km/h SO 14,1 C 17,2 C 0,0 km/h
23.07.2018 08:00 19,4 C 82 % 1015,0 hPa 0,0 l/m 0,0 km/h W 16,2 C 19,4 C 0,0 km/h
23.07.2018 09:00 21,3 C 76 % 1014,8 hPa 0,0 l/m 0,0 km/h NO 16,9 C 21,3 C 0,0 km/h
23.07.2018 10:00 22,9 C 70 % 1014,9 hPa 0,0 l/m 0,0 km/h W 17,1 C 22,9 C 0,0 km/h
23.07.2018 11:00 24,0 C 69 % 1014,8 hPa 0,0 l/m 0,0 km/h N 18,0 C 24,0 C 0,0 km/h
23.07.2018 12:00 25,6 C 61 % 1014,3 hPa 0,0 l/m 0,0 km/h S 17,5 C 25,6 C 0,0 km/h
23.07.2018 13:00 26,8 C 58 % 1014,0 hPa 0,0 l/m 9,7 km/h N-NO 17,8 C 26,2 C 5,4 km/h
23.07.2018 14:00 27,7 C 52 % 1013,7 hPa 0,0 l/m 7,1 km/h W-SW 16,9 C 27,6 C 4,0 km/h
23.07.2018 15:00 28,9 C 50 % 1013,6 hPa 0,0 l/m 0,0 km/h N-NO 17,4 C 28,9 C 0,0 km/h
23.07.2018 16:00 28,0 C 50 % 1013,2 hPa 0,0 l/m 0,0 km/h N-NO 16,6 C 28,0 C 0,0 km/h
23.07.2018 17:00 27,6 C 54 % 1012,9 hPa 0,0 l/m 0,0 km/h N-NO 17,4 C 27,6 C 0,0 km/h
23.07.2018 18:00 27,1 C 55 % 1012,8 hPa 0,0 l/m 0,0 km/h N-NW 17,3 C 27,1 C 0,0 km/h
23.07.2018 19:00 28,2 C 50 % 1012,8 hPa 0,0 l/m 0,0 km/h SO 16,8 C 28,2 C 0,0 km/h
23.07.2018 20:00 24,8 C 67 % 1013,2 hPa 0,0 l/m 0,0 km/h SO 18,2 C 24,8 C 0,0 km/h
23.07.2018 21:00 22,5 C 73 % 1013,6 hPa 0,0 l/m 0,0 km/h SO 17,4 C 22,5 C 0,0 km/h
23.07.2018 22:00 21,0 C 77 % 1013,6 hPa 0,0 l/m 0,0 km/h SO 16,8 C 21,0 C 0,0 km/h
23.07.2018 23:00 20,1 C 77 % 1013,5 hPa 0,0 l/m 0,0 km/h O-SO 15,9 C 20,1 C 0,0 km/h
24.07.2018 00:00 19,8 C 76 % 1013,2 hPa 0,0 l/m 0,0 km/h O-NO 15,4 C 19,8 C 0,0 km/h
24.07.2018 01:00 19,4 C 75 % 1012,9 hPa 0,0 l/m 0,0 km/h O-NO 14,8 C 19,4 C 0,0 km/h
24.07.2018 02:00 18,2 C 79 % 1012,6 hPa 0,0 l/m 0,0 km/h O-NO 14,5 C 18,2 C 0,0 km/h
24.07.2018 03:00 17,8 C 80 % 1012,3 hPa 0,0 l/m 0,0 km/h O-SO 14,3 C 17,8 C 0,0 km/h
24.07.2018 04:00 17,9 C 79 % 1012,1 hPa 0,0 l/m 0,0 km/h O 14,2 C 17,9 C 0,0 km/h
24.07.2018 05:00 16,6 C 80 % 1012,1 hPa 0,0 l/m 0,0 km/h O 13,1 C 16,6 C 0,0 km/h
24.07.2018 06:00 16,4 C 82 % 1012,1 hPa 0,0 l/m 0,0 km/h O 13,3 C 16,4 C 0,0 km/h
24.07.2018 07:00 18,4 C 81 % 1012,0 hPa 0,0 l/m 0,0 km/h W 15,1 C 18,4 C 0,0 km/h
24.07.2018 08:00 20,8 C 77 % 1012,1 hPa 0,0 l/m 0,0 km/h SW 16,6 C 20,8 C 0,0 km/h
24.07.2018 09:00 22,5 C 71 % 1012,1 hPa 0,0 l/m 0,0 km/h W-SW 17,0 C 22,5 C 0,0 km/h
24.07.2018 10:00 24,8 C 67 % 1011,8 hPa 0,0 l/m 0,0 km/h W-NW 18,2 C 24,8 C 0,0 km/h
24.07.2018 11:00 27,4 C 54 % 1011,3 hPa 0,0 l/m 0,0 km/h N-NW 17,3 C 27,4 C 0,0 km/h
24.07.2018 12:00 29,1 C 53 % 1010,5 hPa 0,0 l/m 24,0 km/h N-NW 18,5 C 27,8 C 13,3 km/h
24.07.2018 13:00 30,3 C 48 % 1010,2 hPa 0,0 l/m 18,8 km/h N-NW 18,0 C 29,6 C 10,4 km/h
24.07.2018 14:00 31,5 C 43 % 1009,7 hPa 0,0 l/m 0,0 km/h N 17,4 C 31,5 C 0,0 km/h
24.07.2018 15:00 32,4 C 41 % 1009,3 hPa 0,0 l/m 0,0 km/h NW 17,4 C 32,4 C 0,0 km/h
24.07.2018 16:00 32,9 C 40 % 1008,8 hPa 0,0 l/m 20,7 km/h N-NO 17,5 C 32,9 C 11,5 km/h
24.07.2018 17:00 32,8 C 35 % 1008,7 hPa 0,0 l/m 0,0 km/h N-NO 15,3 C 32,8 C 0,0 km/h
24.07.2018 18:00 31,9 C 40 % 1008,8 hPa 0,0 l/m 0,0 km/h N 16,6 C 31,9 C 0,0 km/h
24.07.2018 19:00 31,3 C 41 % 1008,9 hPa 0,0 l/m 3,2 km/h N 16,4 C 31,3 C 1,8 km/h
24.07.2018 20:00 29,3 C 44 % 1009,2 hPa 0,0 l/m 0,0 km/h O 15,8 C 29,3 C 0,0 km/h
24.07.2018 21:00 25,8 C 56 % 1009,7 hPa 0,0 l/m 0,0 km/h O-SO 16,3 C 25,8 C 0,0 km/h
24.07.2018 22:00 24,1 C 59 % 1009,8 hPa 0,0 l/m 0,0 km/h SO 15,6 C 24,1 C 0,0 km/h
24.07.2018 23:00 23,5 C 59 % 1010,3 hPa 0,0 l/m 0,0 km/h O-SO 15,0 C 23,5 C 0,0 km/h
25.07.2018 00:00 22,8 C 61 % 1010,5 hPa 0,0 l/m 0,0 km/h O-SO 14,9 C 22,8 C 0,0 km/h
25.07.2018 01:00 21,9 C 63 % 1010,4 hPa 0,0 l/m 0,0 km/h O-SO 14,5 C 21,9 C 0,0 km/h
25.07.2018 02:00 20,9 C 68 % 1010,4 hPa 0,0 l/m 0,0 km/h O-SO 14,8 C 20,9 C 0,0 km/h
25.07.2018 03:00 19,9 C 72 % 1010,9 hPa 0,0 l/m 0,0 km/h O-SO 14,7 C 19,9 C 0,0 km/h
25.07.2018 04:00 20,6 C 70 % 1011,1 hPa 0,0 l/m 0,0 km/h O-SO 14,9 C 20,6 C 0,0 km/h
25.07.2018 05:00 20,6 C 71 % 1011,4 hPa 0,0 l/m 0,0 km/h O-NO 15,2 C 20,6 C 0,0 km/h
25.07.2018 06:00 21,1 C 73 % 1011,7 hPa 0,0 l/m 0,0 km/h O-SO 16,1 C 21,1 C 0,0 km/h
25.07.2018 07:00 22,0 C 72 % 1012,0 hPa 0,0 l/m 0,0 km/h O-NO 16,7 C 22,0 C 0,0 km/h
25.07.2018 08:00 24,1 C 67 % 1012,3 hPa 0,0 l/m 0,0 km/h W-NW 17,6 C 24,1 C 0,0 km/h
25.07.2018 09:00 25,9 C 60 % 1012,3 hPa 0,0 l/m 0,0 km/h S-SW 17,5 C 25,9 C 0,0 km/h
25.07.2018 10:00 28,1 C 55 % 1012,3 hPa 0,0 l/m 0,0 km/h NW 18,2 C 28,1 C 0,0 km/h
25.07.2018 11:00 30,5 C 45 % 1012,0 hPa 0,0 l/m 0,0 km/h W-SW 17,2 C 30,5 C 0,0 km/h
25.07.2018 12:00 31,7 C 42 % 1011,3 hPa 0,0 l/m 0,0 km/h NO 17,2 C 31,7 C 0,0 km/h
25.07.2018 13:00 32,4 C 36 % 1011,0 hPa 0,0 l/m 0,0 km/h N-NW 15,4 C 32,4 C 0,0 km/h
25.07.2018 14:00 32,4 C 36 % 1010,8 hPa 0,0 l/m 2,6 km/h N-NW 15,4 C 32,4 C 1,4 km/h
25.07.2018 15:00 30,9 C 40 % 1010,8 hPa 0,0 l/m 0,0 km/h W 15,7 C 30,9 C 0,0 km/h
25.07.2018 16:00 31,2 C 43 % 1010,4 hPa 0,0 l/m 0,0 km/h W 17,1 C 31,2 C 0,0 km/h
25.07.2018 17:00 32,2 C 40 % 1010,2 hPa 0,0 l/m 0,0 km/h O-SO 16,9 C 32,2 C 0,0 km/h
25.07.2018 18:00 23,6 C 60 % 1011,0 hPa 1,0 l/m 0,0 km/h SO 15,4 C 23,6 C 0,0 km/h
25.07.2018 19:00 21,5 C 78 % 1011,2 hPa 0,5 l/m 0,0 km/h O-SO 17,5 C 21,5 C 0,0 km/h
25.07.2018 20:00 20,9 C 80 % 1011,2 hPa 0,0 l/m 0,0 km/h O-SO 17,3 C 20,9 C 0,0 km/h
25.07.2018 21:00 19,9 C 81 % 1011,4 hPa 0,0 l/m 0,0 km/h O 16,5 C 19,9 C 0,0 km/h
25.07.2018 22:00 19,8 C 81 % 1011,6 hPa 0,0 l/m 0,0 km/h O-SO 16,4 C 19,8 C 0,0 km/h
25.07.2018 23:00 19,3 C 80 % 1011,8 hPa 0,0 l/m 0,0 km/h SO 15,8 C 19,3 C 0,0 km/h
26.07.2018 00:00 18,9 C 80 % 1011,5 hPa 0,0 l/m 0,0 km/h O-NO 15,4 C 18,9 C 0,0 km/h
26.07.2018 01:00 18,6 C 79 % 1011,5 hPa 0,0 l/m 0,0 km/h O-NO 14,9 C 18,6 C 0,0 km/h
26.07.2018 02:00 18,1 C 80 % 1011,3 hPa 0,0 l/m 0,0 km/h SO 14,6 C 18,1 C 0,0 km/h
26.07.2018 03:00 17,5 C 81 % 1011,4 hPa 0,0 l/m 0,0 km/h O 14,2 C 17,5 C 0,0 km/h
26.07.2018 04:00 17,4 C 81 % 1011,6 hPa 0,0 l/m 0,0 km/h SO 14,1 C 17,4 C 0,0 km/h
26.07.2018 05:00 17,3 C 81 % 1011,5 hPa 0,0 l/m 0,0 km/h O 14,0 C 17,3 C 0,0 km/h
26.07.2018 06:00 17,9 C 81 % 1011,7 hPa 0,0 l/m 0,0 km/h O-NO 14,6 C 17,9 C 0,0 km/h
26.07.2018 07:00 19,1 C 80 % 1012,3 hPa 0,0 l/m 0,0 km/h O 15,6 C 19,1 C 0,0 km/h
26.07.2018 08:00 21,9 C 73 % 1012,1 hPa 0,0 l/m 0,0 km/h N-NW 16,8 C 21,9 C 0,0 km/h
26.07.2018 09:00 23,9 C 67 % 1011,9 hPa 0,0 l/m 0,0 km/h W-NW 17,4 C 23,9 C 0,0 km/h
26.07.2018 10:00 26,4 C 60 % 1011,6 hPa 0,0 l/m 0,0 km/h N 18,0 C 26,4 C 0,0 km/h
26.07.2018 11:00 29,3 C 54 % 1011,0 hPa 0,0 l/m 0,0 km/h NW 19,0 C 29,3 C 0,0 km/h
26.07.2018 12:00 31,2 C 48 % 1010,6 hPa 0,0 l/m 7,1 km/h N-NO 18,9 C 31,2 C 4,0 km/h
26.07.2018 13:00 33,3 C 34 % 1010,3 hPa 0,0 l/m 0,0 km/h N-NO 15,3 C 33,3 C 0,0 km/h
26.07.2018 14:00 34,1 C 28 % 1009,7 hPa 0,0 l/m 7,1 km/h N-NO 13,0 C 34,1 C 4,0 km/h
26.07.2018 15:00 34,3 C 25 % 1009,3 hPa 0,0 l/m 0,0 km/h O-NO 11,4 C 34,3 C 0,0 km/h
26.07.2018 16:00 34,4 C 26 % 1009,3 hPa 0,0 l/m 12,3 km/h NO 12,1 C 34,4 C 6,8 km/h
26.07.2018 17:00 34,1 C 27 % 1009,0 hPa 0,0 l/m 0,0 km/h NO 12,4 C 34,1 C 0,0 km/h
26.07.2018 18:00 33,4 C 27 % 1009,0 hPa 0,0 l/m 0,0 km/h NO 11,8 C 33,4 C 0,0 km/h
26.07.2018 19:00 32,2 C 28 % 1009,2 hPa 0,0 l/m 5,2 km/h NO 11,3 C 32,2 C 2,9 km/h
26.07.2018 20:00 29,4 C 33 % 1009,6 hPa 0,0 l/m 0,0 km/h O-SO 11,4 C 29,4 C 0,0 km/h
26.07.2018 21:00 26,1 C 40 % 1010,2 hPa 0,0 l/m 0,0 km/h SO 11,4 C 26,1 C 0,0 km/h
26.07.2018 22:00 23,2 C 50 % 1010,4 hPa 0,0 l/m 0,0 km/h O-SO 12,2 C 23,2 C 0,0 km/h
26.07.2018 23:00 21,5 C 56 % 1010,9 hPa 0,0 l/m 0,0 km/h O-SO 12,3 C 21,5 C 0,0 km/h
27.07.2018 00:00 20,3 C 62 % 1010,8 hPa 0,0 l/m 0,0 km/h O 12,8 C 20,3 C 0,0 km/h
27.07.2018 01:00 20,9 C 60 % 1010,9 hPa 0,0 l/m 0,0 km/h SO 12,8 C 20,9 C 0,0 km/h
27.07.2018 02:00 20,4 C 60 % 1010,6 hPa 0,0 l/m 0,0 km/h O 12,4 C 20,4 C 0,0 km/h
27.07.2018 03:00 19,9 C 63 % 1010,4 hPa 0,0 l/m 0,0 km/h O-NO 12,6 C 19,9 C 0,0 km/h
27.07.2018 04:00 18,9 C 66 % 1010,3 hPa 0,0 l/m 0,0 km/h SO 12,4 C 18,9 C 0,0 km/h
27.07.2018 05:00 18,6 C 67 % 1010,1 hPa 0,0 l/m 0,0 km/h O-NO 12,3 C 18,6 C 0,0 km/h
27.07.2018 06:00 18,4 C 69 % 1010,6 hPa 0,0 l/m 0,0 km/h O-SO 12,6 C 18,4 C 0,0 km/h
27.07.2018 07:00 20,1 C 68 % 1010,8 hPa 0,0 l/m 0,0 km/h SO 14,0 C 20,1 C 0,0 km/h
27.07.2018 08:00 22,9 C 62 % 1011,0 hPa 0,0 l/m 0,0 km/h S-SO 15,2 C 22,9 C 0,0 km/h
27.07.2018 09:00 25,4 C 56 % 1010,5 hPa 0,0 l/m 0,0 km/h N-NW 16,0 C 25,4 C 0,0 km/h
27.07.2018 10:00 27,7 C 49 % 1009,9 hPa 0,0 l/m 0,0 km/h W 16,0 C 27,7 C 0,0 km/h
27.07.2018 11:00 30,1 C 44 % 1009,3 hPa 0,0 l/m 0,0 km/h N-NW 16,5 C 30,1 C 0,0 km/h
27.07.2018 12:00 31,6 C 41 % 1009,1 hPa 0,0 l/m 0,0 km/h N-NO 16,7 C 31,6 C 0,0 km/h
27.07.2018 13:00 32,5 C 37 % 1008,5 hPa 0,0 l/m 8,4 km/h NO 15,9 C 32,5 C 4,7 km/h
27.07.2018 14:00 32,7 C 35 % 1008,3 hPa 0,0 l/m 0,0 km/h O-NO 15,2 C 32,7 C 0,0 km/h
27.07.2018 15:00 34,1 C 33 % 1007,6 hPa 0,0 l/m 0,0 km/h N 15,5 C 34,1 C 0,0 km/h
27.07.2018 16:00 33,9 C 32 % 1007,2 hPa 0,0 l/m 0,0 km/h NO 14,8 C 33,9 C 0,0 km/h
27.07.2018 17:00 32,1 C 36 % 1006,9 hPa 0,0 l/m 0,0 km/h O-NO 15,1 C 32,1 C 0,0 km/h
27.07.2018 18:00 31,9 C 35 % 1006,6 hPa 0,0 l/m 0,0 km/h NO 14,5 C 31,9 C 0,0 km/h
27.07.2018 19:00 30,4 C 44 % 1006,4 hPa 0,0 l/m 0,0 km/h O 16,7 C 30,4 C 0,0 km/h
27.07.2018 20:00 28,4 C 52 % 1006,6 hPa 0,0 l/m 0,0 km/h O-NO 17,6 C 28,4 C 0,0 km/h
27.07.2018 21:00 25,5 C 55 % 1006,9 hPa 0,0 l/m 0,0 km/h O-NO 15,8 C 25,5 C 0,0 km/h
27.07.2018 22:00 23,4 C 61 % 1007,2 hPa 0,0 l/m 0,0 km/h O-NO 15,4 C 23,4 C 0,0 km/h
27.07.2018 23:00 22,8 C 62 % 1007,0 hPa 0,0 l/m 0,0 km/h O 15,1 C 22,8 C 0,0 km/h
28.07.2018 00:00 22,1 C 62 % 1006,9 hPa 0,0 l/m 0,0 km/h O 14,5 C 22,1 C 0,0 km/h
28.07.2018 01:00 20,8 C 66 % 1006,6 hPa 0,0 l/m 0,0 km/h O-SO 14,2 C 20,8 C 0,0 km/h
28.07.2018 02:00 19,8 C 70 % 1006,1 hPa 0,0 l/m 0,0 km/h O 14,2 C 19,8 C 0,0 km/h
28.07.2018 03:00 18,9 C 72 % 1006,1 hPa 0,0 l/m 0,0 km/h N-NW 13,7 C 18,9 C 0,0 km/h
28.07.2018 04:00 18,7 C 74 % 1007,0 hPa 0,0 l/m 0,0 km/h O-NO 14,0 C 18,7 C 0,0 km/h
28.07.2018 05:00 19,3 C 74 % 1007,0 hPa 0,0 l/m 0,0 km/h SO 14,5 C 19,3 C 0,0 km/h
28.07.2018 06:00 21,4 C 67 % 1005,4 hPa 0,0 l/m 0,0 km/h N-NO 15,0 C 21,4 C 0,0 km/h
28.07.2018 07:00 22,1 C 67 % 1006,7 hPa 0,0 l/m 0,0 km/h SO 15,7 C 22,1 C 0,0 km/h
28.07.2018 08:00 20,8 C 74 % 1007,9 hPa 0,0 l/m 0,0 km/h SO 16,0 C 20,8 C 0,0 km/h
28.07.2018 09:00 21,5 C 76 % 1008,1 hPa 0,0 l/m 3,9 km/h S-SO 17,1 C 21,5 C 2,2 km/h
28.07.2018 10:00 24,6 C 66 % 1008,4 hPa 0,0 l/m 9,1 km/h S-SW 17,8 C 23,9 C 5,0 km/h
28.07.2018 11:00 27,3 C 57 % 1008,7 hPa 0,0 l/m 0,0 km/h W 18,0 C 27,3 C 0,0 km/h
28.07.2018 12:00 26,9 C 54 % 1009,2 hPa 0,0 l/m 25,9 km/h SO 16,8 C 24,7 C 14,4 km/h
28.07.2018 13:00 27,0 C 54 % 1009,7 hPa 0,0 l/m 23,3 km/h W 16,9 C 25,0 C 13,0 km/h
28.07.2018 14:00 26,4 C 55 % 1010,5 hPa 0,0 l/m 20,7 km/h S-SW 16,6 C 24,4 C 11,5 km/h
28.07.2018 15:00 25,7 C 59 % 1010,6 hPa 0,0 l/m 22,7 km/h SW 17,1 C 23,3 C 12,6 km/h
28.07.2018 16:00 25,2 C 59 % 1010,7 hPa 0,0 l/m 24,6 km/h W-NW 16,6 C 22,5 C 13,7 km/h
28.07.2018 17:00 25,3 C 62 % 1010,5 hPa 0,0 l/m 30,5 km/h W-SW 17,5 C 22,1 C 16,9 km/h
28.07.2018 18:00 26,9 C 57 % 1010,5 hPa 0,0 l/m 35,0 km/h SW 17,6 C 24,2 C 19,4 km/h
28.07.2018 19:00 25,6 C 58 % 1010,9 hPa 0,0 l/m 20,7 km/h SW 16,7 C 23,4 C 11,5 km/h
28.07.2018 20:00 24,6 C 60 % 1011,3 hPa 0,0 l/m 6,5 km/h SO 16,3 C 24,6 C 3,6 km/h
28.07.2018 21:00 23,6 C 62 % 1012,1 hPa 0,0 l/m 0,0 km/h S-SW 15,9 C 23,6 C 0,0 km/h
28.07.2018 22:00 22,6 C 63 % 1012,3 hPa 0,0 l/m 0,0 km/h SO 15,2 C 22,6 C 0,0 km/h
28.07.2018 23:00 20,8 C 71 % 1012,6 hPa 0,0 l/m 0,0 km/h O-SO 15,3 C 20,8 C 0,0 km/h
29.07.2018 00:00 19,5 C 75 % 1012,8 hPa 0,0 l/m 0,0 km/h O-NO 14,9 C 19,5 C 0,0 km/h
29.07.2018 01:00 18,9 C 77 % 1012,7 hPa 0,0 l/m 0,0 km/h O 14,8 C 18,9 C 0,0 km/h
29.07.2018 02:00 18,6 C 77 % 1013,1 hPa 0,0 l/m 0,0 km/h O-SO 14,5 C 18,6 C 0,0 km/h
29.07.2018 03:00 18,0 C 79 % 1013,0 hPa 0,0 l/m 0,0 km/h SO 14,3 C 18,0 C 0,0 km/h
29.07.2018 04:00 17,8 C 80 % 1012,9 hPa 0,0 l/m 0,0 km/h O 14,3 C 17,8 C 0,0 km/h
29.07.2018 05:00 17,3 C 80 % 1012,9 hPa 0,0 l/m 0,0 km/h O-NO 13,8 C 17,3 C 0,0 km/h
29.07.2018 06:00 17,4 C 81 % 1013,0 hPa 0,0 l/m 0,0 km/h SO 14,1 C 17,4 C 0,0 km/h
29.07.2018 07:00 18,6 C 79 % 1013,1 hPa 0,0 l/m 0,0 km/h O-SO 14,9 C 18,6 C 0,0 km/h
29.07.2018 08:00 21,1 C 74 % 1013,1 hPa 0,0 l/m 0,0 km/h N-NO 16,3 C 21,1 C 0,0 km/h
29.07.2018 09:00 23,3 C 69 % 1012,8 hPa 0,0 l/m 0,0 km/h NW 17,3 C 23,3 C 0,0 km/h
29.07.2018 10:00 25,4 C 62 % 1012,6 hPa 0,0 l/m 0,0 km/h NO 17,6 C 25,4 C 0,0 km/h
29.07.2018 11:00 26,9 C 56 % 1012,0 hPa 0,0 l/m 0,0 km/h N-NO 17,4 C 26,9 C 0,0 km/h
29.07.2018 12:00 28,5 C 51 % 1011,9 hPa 0,0 l/m 0,0 km/h N-NW 17,4 C 28,5 C 0,0 km/h
29.07.2018 13:00 29,3 C 47 % 1011,3 hPa 0,0 l/m 0,0 km/h N-NW 16,8 C 29,3 C 0,0 km/h
29.07.2018 14:00 30,6 C 43 % 1011,2 hPa 0,0 l/m 0,0 km/h NW 16,6 C 30,6 C 0,0 km/h
29.07.2018 15:00 31,4 C 37 % 1010,9 hPa 0,0 l/m 3,9 km/h W-SW 14,9 C 31,4 C 2,2 km/h
29.07.2018 16:00 31,9 C 36 % 1010,5 hPa 0,0 l/m 0,0 km/h W-SW 14,9 C 31,9 C 0,0 km/h
29.07.2018 17:00 32,4 C 33 % 1010,4 hPa 0,0 l/m 5,8 km/h W-SW 14,0 C 32,4 C 3,2 km/h
29.07.2018 18:00 32,7 C 32 % 1010,2 hPa 0,0 l/m 0,0 km/h W 13,8 C 32,7 C 0,0 km/h
29.07.2018 19:00 31,5 C 33 % 1010,3 hPa 0,0 l/m 0,0 km/h O 13,2 C 31,5 C 0,0 km/h
29.07.2018 20:00 28,1 C 44 % 1010,7 hPa 0,0 l/m 0,0 km/h O-NO 14,7 C 28,1 C 0,0 km/h
29.07.2018 21:00 24,9 C 50 % 1011,4 hPa 0,0 l/m 0,0 km/h O-SO 13,7 C 24,9 C 0,0 km/h
29.07.2018 22:00 23,0 C 54 % 1011,8 hPa 0,0 l/m 0,0 km/h O-SO 13,2 C 23,0 C 0,0 km/h
29.07.2018 23:00 22,0 C 58 % 1012,1 hPa 0,0 l/m 0,0 km/h O-SO 13,3 C 22,0 C 0,0 km/h
Min-Datum _ 23.07.18 26.07.18 28.07.18 - 23.07.18 - 26.07.18 23.07.18 23.07.18
_ Min-Zeit 06:53 15:53 06:53 - 00:53 - 19:53 06:53 00:53
Minimum _ 15,6 C 25 % 1005,4 hPa - 0,0 km/h - 11,3 C 15,6 C 0,0 km/h
Max-Datum _ 26.07.18 23.07.18 23.07.18 25.07.18 28.07.18 - 26.07.18 26.07.18 28.07.18
_ Max-Zeit 16:53 01:53 08:53 18:53 18:53 - 11:53 16:53 18:53
Maximum _ 34,4 C 83 % 1015,0 hPa 1,0 l/m 35,0 km/h
SW
- 19,0 C 34,4 C 19,4 km/h
SW
Durchschnitt _ 24,4 C 60 % 1010,9 hPa #1,6 l/m 2,1 km/h O-NO 15,5 C 24,3 C 1,2 km/h
www.sexauwetter.de